»·PEaware :: FDX518 KDEN-KLAX

FDX518 :: KDEN-KLAX

FLIGHT INFORMATION

Flight Status: Arrived
Operator:
Federal Express
More flights by this operator :: More flights under this callsign
Pilot: Mike G. (10864)
Aircraft: AIRBUS A300B4-600
(A306)
More flights by this aircraft type
Origin: KDEN Denver Intl
United States
Destination: KLAX Los Angeles Intl
United States
More flights between these airports :: More routes between these airports
Route: BAYLR6 TEHRU JASSE Q90 DNERO ANJLL4
File this flight plan on PilotEdge
Remarks: RMK / SIMBRIEF
Altitude:
(Current/Filed)
34,000ft
Speed:
(Current/Filed)
449kts
Departed: 14-Dec-20 10:09 AM
Arrived: 14-Dec-20 12:15 PM
Distance/Time
Traveled:
747nm/2:06
Distance/Time
To Go:
Arrived

Flight Plot

Page will automatically refresh every two minutes.

Flight plan parsing failed; only flown route is shown


Map Options




Map Legend


Flown Route
Filed Route
Departure Airport
Arrival Airport
Navaid (VOR, NDB)
Fix

Horizontal Profiles

Position Reports

Time Latitude Longitude Heading Altitude Ground
Speed
14-Dec-20 09:34 39.829314 -104.675133 180 5447ft 0kts
14-Dec-20 09:35 39.829314 -104.675133 180 5447ft 0kts
14-Dec-20 09:36 39.829314 -104.675133 180 5447ft 0kts
14-Dec-20 09:37 39.829314 -104.675133 180 5447ft 0kts
14-Dec-20 09:38 39.829314 -104.675133 180 5447ft 0kts
14-Dec-20 09:39 39.829314 -104.675133 180 5447ft 0kts
14-Dec-20 09:40 39.829314 -104.675133 180 5447ft 0kts
14-Dec-20 09:41 39.829314 -104.675133 180 5446ft 0kts
14-Dec-20 09:42 39.829314 -104.675133 180 5446ft 0kts
14-Dec-20 09:43 39.829314 -104.675133 180 5446ft 0kts
14-Dec-20 09:44 39.829314 -104.675133 180 5446ft 0kts
14-Dec-20 09:45 39.829314 -104.675133 180 5446ft 0kts
14-Dec-20 09:46 39.829314 -104.675133 180 5446ft 0kts
14-Dec-20 09:47 39.829314 -104.675133 180 5446ft 0kts
14-Dec-20 09:47 39.829314 -104.675133 180 5446ft 0kts
14-Dec-20 09:49 39.829314 -104.675133 180 5446ft 0kts
14-Dec-20 09:49 39.829314 -104.675133 180 5446ft 0kts
14-Dec-20 09:51 39.829314 -104.675133 180 5446ft 0kts
14-Dec-20 09:51 39.829314 -104.675133 180 5446ft 0kts
14-Dec-20 09:52 39.829631 -104.675214 182 5447ft 2kts
14-Dec-20 09:54 39.830046 -104.675622 88 5447ft 1kts
14-Dec-20 09:54 39.830046 -104.675640 89 5446ft 0kts
14-Dec-20 09:56 39.830046 -104.675640 89 5446ft 0kts
14-Dec-20 09:56 39.830046 -104.675637 89 5446ft 0kts
14-Dec-20 09:57 39.830122 -104.673442 95 5446ft 6kts
14-Dec-20 09:58 39.829393 -104.669435 89 5446ft 17kts
14-Dec-20 09:59 39.829379 -104.663965 87 5446ft 12kts
14-Dec-20 10:00 39.833219 -104.662654 359 5446ft 22kts
14-Dec-20 10:01 39.838637 -104.662568 1 5446ft 16kts
14-Dec-20 10:02 39.843510 -104.662522 0 5446ft 21kts
14-Dec-20 10:03 39.851447 -104.662428 0 5446ft 35kts
14-Dec-20 10:04 39.856020 -104.662379 0 5446ft 2kts
14-Dec-20 10:05 39.858940 -104.662330 359 5446ft 18kts
14-Dec-20 10:06 39.860967 -104.661928 66 5446ft 0kts
14-Dec-20 10:07 39.861074 -104.660776 90 5446ft 12kts
14-Dec-20 10:08 39.855883 -104.660220 179 5447ft 93kts
14-Dec-20 10:09 39.804439 -104.667022 222 7053ft 224kts
14-Dec-20 10:10 39.760204 -104.738182 251 8930ft 272kts
14-Dec-20 10:11 39.765044 -104.840960 275 10887ft 309kts
14-Dec-20 10:12 39.760815 -104.963059 256 12603ft 363kts
14-Dec-20 10:13 39.727066 -105.090250 246 14886ft 385kts
14-Dec-20 10:14 39.684047 -105.222850 245 17457ft 408kts
14-Dec-20 10:15 39.638574 -105.361544 243 19983ft 424kts
14-Dec-20 10:16 39.591834 -105.503408 242 22415ft 431kts
14-Dec-20 10:17 39.544599 -105.647531 244 24386ft 436kts
14-Dec-20 10:18 39.503538 -105.796516 244 25395ft 441kts
14-Dec-20 10:19 39.462343 -105.945965 243 26390ft 442kts
14-Dec-20 10:20 39.421140 -106.095181 243 27418ft 441kts
14-Dec-20 10:21 39.380089 -106.242681 243 29135ft 429kts
14-Dec-20 10:22 39.340580 -106.382697 244 32348ft 399kts
14-Dec-20 10:23 39.303521 -106.513400 245 33931ft 378kts
14-Dec-20 10:24 39.267557 -106.639719 245 33942ft 374kts
14-Dec-20 10:25 39.219448 -106.756230 233 33964ft 368kts
14-Dec-20 10:26 39.159672 -106.862787 232 33969ft 370kts
14-Dec-20 10:27 39.098073 -106.970104 232 33966ft 375kts
14-Dec-20 10:28 39.035564 -107.078534 232 33965ft 379kts
14-Dec-20 10:29 38.973332 -107.186308 232 34001ft 374kts
14-Dec-20 10:30 38.911479 -107.293215 232 34034ft 371kts
14-Dec-20 10:31 38.849953 -107.399114 232 34068ft 369kts
14-Dec-20 10:32 38.788450 -107.504400 232 34063ft 369kts
14-Dec-20 10:33 38.726600 -107.609684 232 34053ft 368kts
14-Dec-20 10:34 38.664554 -107.714631 231 34072ft 370kts
14-Dec-20 10:35 38.602487 -107.819186 232 34064ft 369kts
14-Dec-20 10:36 38.540293 -107.923726 232 34066ft 370kts
14-Dec-20 10:37 38.477916 -108.028269 232 34058ft 369kts
14-Dec-20 10:38 38.415577 -108.132403 231 34054ft 368kts
14-Dec-20 10:39 38.352836 -108.236869 232 34062ft 369kts
14-Dec-20 10:40 38.290378 -108.340492 232 34028ft 369kts
14-Dec-20 10:41 38.227858 -108.443910 231 33995ft 369kts
14-Dec-20 10:42 38.165128 -108.547337 232 33985ft 369kts
14-Dec-20 10:43 38.102137 -108.650817 231 34000ft 369kts
14-Dec-20 10:44 38.039039 -108.753889 231 34039ft 368kts
14-Dec-20 10:45 37.976078 -108.856602 231 34068ft 369kts
14-Dec-20 10:46 37.913063 -108.959126 231 34095ft 369kts
14-Dec-20 10:47 37.848950 -109.063200 232 34112ft 379kts
14-Dec-20 10:48 37.783255 -109.169523 232 34111ft 388kts
14-Dec-20 10:49 37.715961 -109.278049 233 34109ft 391kts
14-Dec-20 10:50 37.648761 -109.385985 233 34105ft 391kts
14-Dec-20 10:51 37.581439 -109.493761 233 34107ft 391kts
14-Dec-20 10:52 37.515795 -109.598505 233 34103ft 391kts
14-Dec-20 10:53 37.446508 -109.708593 232 34110ft 391kts
14-Dec-20 10:54 37.378580 -109.816184 232 34109ft 391kts
14-Dec-20 10:55 37.310871 -109.923147 232 34110ft 391kts
14-Dec-20 10:56 37.242892 -110.030218 232 34109ft 391kts
14-Dec-20 10:57 37.175132 -110.136581 232 34105ft 391kts
14-Dec-20 10:58 37.106857 -110.243402 232 34106ft 390kts
14-Dec-20 10:59 37.039096 -110.349026 232 34087ft 385kts
14-Dec-20 11:00 36.972150 -110.453058 233 34060ft 380kts
14-Dec-20 11:01 36.905822 -110.555839 233 34052ft 380kts
14-Dec-20 11:02 36.839150 -110.658848 233 34064ft 380kts
14-Dec-20 11:03 36.772258 -110.761701 233 34068ft 379kts
14-Dec-20 11:04 36.705366 -110.864402 233 34067ft 380kts
14-Dec-20 11:05 36.637982 -110.967624 234 34065ft 388kts
14-Dec-20 11:06 36.568521 -111.073767 235 34062ft 399kts
14-Dec-20 11:07 36.497305 -111.182205 235 34062ft 404kts
14-Dec-20 11:08 36.426123 -111.290134 235 34060ft 404kts
14-Dec-20 11:09 36.354730 -111.398028 235 34059ft 403kts
14-Dec-20 11:10 36.283410 -111.505475 235 34055ft 404kts
14-Dec-20 11:11 36.211806 -111.612998 235 34035ft 404kts
14-Dec-20 11:12 36.139952 -111.720477 234 34022ft 404kts
14-Dec-20 11:13 36.067298 -111.825005 249 34028ft 399kts
14-Dec-20 11:14 36.026619 -111.951656 251 34019ft 396kts
14-Dec-20 11:15 35.986104 -112.078813 251 34017ft 396kts
14-Dec-20 11:16 35.945523 -112.206117 251 34016ft 397kts
14-Dec-20 11:17 35.904920 -112.333226 251 34015ft 397kts
14-Dec-20 11:18 35.864358 -112.459664 251 34012ft 396kts
14-Dec-20 11:19 35.823499 -112.586282 251 34011ft 396kts
14-Dec-20 11:20 35.782327 -112.712911 250 34021ft 397kts
14-Dec-20 11:21 35.741006 -112.839154 251 34018ft 396kts
14-Dec-20 11:22 35.699597 -112.965199 253 34007ft 399kts
14-Dec-20 11:23 35.657419 -113.093085 255 34008ft 404kts
14-Dec-20 11:24 35.614757 -113.221743 255 34053ft 404kts
14-Dec-20 11:25 35.571120 -113.349322 254 34077ft 404kts
14-Dec-20 11:26 35.527808 -113.477261 255 34075ft 404kts
14-Dec-20 11:27 35.484757 -113.604832 255 34075ft 404kts
14-Dec-20 11:28 35.441685 -113.732222 254 34086ft 404kts
14-Dec-20 11:29 35.398531 -113.859485 254 34085ft 404kts
14-Dec-20 11:30 35.355249 -113.986833 254 34082ft 403kts
14-Dec-20 11:31 35.311941 -114.113803 254 34082ft 404kts
14-Dec-20 11:33 35.268327 -114.241133 254 34081ft 404kts
14-Dec-20 11:34 35.224617 -114.368173 254 34094ft 404kts
14-Dec-20 11:35 35.180707 -114.495225 254 34106ft 404kts
14-Dec-20 11:36 35.136469 -114.622554 254 34106ft 404kts
14-Dec-20 11:37 35.091347 -114.749411 253 34117ft 404kts
14-Dec-20 11:38 35.046776 -114.876140 254 34114ft 404kts
14-Dec-20 11:39 34.996264 -114.999610 251 34116ft 405kts
14-Dec-20 11:40 34.943264 -115.120763 254 34117ft 405kts
14-Dec-20 11:41 34.889899 -115.243254 256 34099ft 410kts
14-Dec-20 11:42 34.836550 -115.365514 256 34093ft 408kts
14-Dec-20 11:43 34.784495 -115.488203 259 34106ft 403kts
14-Dec-20 11:44 34.738551 -115.612633 260 34139ft 400kts
14-Dec-20 11:45 34.692542 -115.737366 259 34184ft 406kts
14-Dec-20 11:46 34.645645 -115.864295 259 34181ft 414kts
14-Dec-20 11:47 34.598330 -115.991867 259 34175ft 406kts
14-Dec-20 11:48 34.553981 -116.110794 259 31709ft 378kts
14-Dec-20 11:49 34.511938 -116.224126 259 30317ft 355kts
14-Dec-20 11:50 34.472046 -116.331858 258 28870ft 346kts
14-Dec-20 11:51 34.432951 -116.437256 257 27404ft 338kts
14-Dec-20 11:51 34.399633 -116.522557 255 26233ft 331kts
14-Dec-20 11:52 34.359363 -116.619592 254 24820ft 317kts
14-Dec-20 11:53 34.320461 -116.714437 253 23673ft 329kts
14-Dec-20 11:54 34.279977 -116.814769 252 22020ft 329kts
14-Dec-20 11:55 34.240000 -116.913702 252 20550ft 322kts
14-Dec-20 11:56 34.204989 -117.011436 260 19106ft 310kts
14-Dec-20 11:57 34.177887 -117.110343 261 17675ft 310kts
14-Dec-20 11:58 34.150699 -117.209280 260 16249ft 311kts
14-Dec-20 11:59 34.123368 -117.308096 259 14771ft 306kts
14-Dec-20 12:00 34.097397 -117.404376 260 13599ft 302kts
14-Dec-20 12:01 34.073231 -117.500678 260 12229ft 294kts
14-Dec-20 12:02 34.041516 -117.590923 253 10994ft 283kts
14-Dec-20 12:03 34.010679 -117.677122 259 10074ft 275kts
14-Dec-20 12:04 33.999776 -117.767433 268 8950ft 270kts
14-Dec-20 12:05 33.990565 -117.859855 268 7661ft 280kts
14-Dec-20 12:06 33.981401 -117.951762 267 6501ft 269kts
14-Dec-20 12:07 33.972989 -118.029764 267 5524ft 200kts
14-Dec-20 12:08 33.966451 -118.095285 267 4826ft 200kts
14-Dec-20 12:09 33.959894 -118.160153 267 3808ft 185kts
14-Dec-20 12:10 33.954111 -118.217545 267 2845ft 150kts
14-Dec-20 12:11 33.948952 -118.269261 266 2008ft 158kts
14-Dec-20 12:12 33.943561 -118.321442 269 1143ft 148kts
14-Dec-20 12:13 33.938662 -118.369720 266 389ft 148kts
14-Dec-20 12:14 33.935061 -118.404879 264 127ft 34kts
14-Dec-20 12:15 33.934090 -118.407167 172 129ft 0kts
14-Dec-20 12:16 33.933748 -118.406539 94 128ft 12kts
14-Dec-20 12:17 33.934280 -118.400756 83 122ft 18kts
14-Dec-20 12:18 33.933525 -118.397660 126 117ft 0kts
14-Dec-20 12:19 33.933525 -118.397660 126 117ft 0kts

Navigation Log

Ident Type
Flight plan parsing failed, navigation log unavailable